createdAt,value
2019-01-04T00:01:58.105Z,3.25
2019-01-04T00:04:26.947Z,3.26
2019-01-04T00:06:55.424Z,3.26
2019-01-04T00:09:24.111Z,3.27
2019-01-04T00:11:53.321Z,3.27
2019-01-04T00:14:21.893Z,3.27
2019-01-04T00:16:50.628Z,3.27
2019-01-04T00:19:19.842Z,3.26
2019-01-04T00:21:48.562Z,3.24
2019-01-04T00:24:17.268Z,3.24
2019-01-04T00:26:46.109Z,3.22
2019-01-04T00:29:14.863Z,3.20
2019-01-04T00:31:43.328Z,3.22
2019-01-04T00:34:12.007Z,3.18
2019-01-04T00:36:40.821Z,3.13
2019-01-04T00:39:09.265Z,3.13
2019-01-04T00:41:38.115Z,3.13
2019-01-04T00:44:06.776Z,3.15
2019-01-04T00:46:35.616Z,3.16
2019-01-04T00:49:04.156Z,3.15
2019-01-04T00:51:32.900Z,3.14
2019-01-04T00:54:01.740Z,3.15
2019-01-04T00:56:36.298Z,3.16
2019-01-04T00:59:19.581Z,3.18
2019-01-04T01:02:14.157Z,3.15
2019-01-04T01:05:02.553Z,3.17
2019-01-04T01:07:45.616Z,3.14
2019-01-04T01:10:36.233Z,3.15
2019-01-04T01:13:31.935Z,3.13
2019-01-04T01:16:15.356Z,3.05
2019-01-04T01:18:49.990Z,3.06
2019-01-04T01:21:30.469Z,3.04
2019-01-04T01:24:10.867Z,3.09
2019-01-04T01:27:14.545Z,3.10
2019-01-04T01:30:11.711Z,3.13
2019-01-04T01:32:49.291Z,3.14
2019-01-04T01:35:32.751Z,3.14
2019-01-04T01:38:10.157Z,3.11
2019-01-04T01:41:14.977Z,3.11
2019-01-04T01:44:00.981Z,3.12
2019-01-04T01:46:41.731Z,3.11
2019-01-04T01:49:42.237Z,3.05
2019-01-04T01:52:16.504Z,3.03
2019-01-04T01:54:45.301Z,3.01
2019-01-04T01:57:13.983Z,3.00
2019-01-04T01:59:42.693Z,3.00
2019-01-04T02:02:13.373Z,2.99
2019-01-04T02:04:42.016Z,3.01
2019-01-04T02:07:10.735Z,3.00
2019-01-04T02:09:39.439Z,3.01
2019-01-04T02:12:08.141Z,3.02
2019-01-04T02:14:36.552Z,3.00
2019-01-04T02:17:05.359Z,3.01
2019-01-04T02:19:33.816Z,3.00
2019-01-04T02:22:02.223Z,3.01
2019-01-04T02:24:30.952Z,3.01
2019-01-04T02:26:59.673Z,2.95
2019-01-04T02:29:28.395Z,2.96
2019-01-04T02:31:57.245Z,3.00
2019-01-04T02:34:25.970Z,3.00
2019-01-04T02:36:54.650Z,2.99
2019-01-04T02:39:23.087Z,2.99
2019-01-04T02:41:51.826Z,2.94
2019-01-04T02:44:21.075Z,2.85
2019-01-04T02:46:49.510Z,2.82
2019-01-04T02:49:18.252Z,2.80
2019-01-04T02:51:46.692Z,2.81
2019-01-04T02:54:15.412Z,2.85
2019-01-04T02:56:44.132Z,2.90
2019-01-04T02:59:12.853Z,2.89
2019-01-04T03:01:41.583Z,2.85
2019-01-04T03:04:10.378Z,2.88
2019-01-04T03:06:38.865Z,2.87
2019-01-04T03:09:07.950Z,2.88
2019-01-04T03:11:37.998Z,2.88
2019-01-04T03:14:06.739Z,2.82
2019-01-04T03:16:35.447Z,2.80
2019-01-04T03:19:04.117Z,2.80
2019-01-04T03:21:32.545Z,2.76
2019-01-04T03:24:00.961Z,2.82
2019-01-04T03:26:29.466Z,2.82
2019-01-04T03:28:58.158Z,2.81
2019-01-04T03:31:26.581Z,2.86
2019-01-04T03:33:55.071Z,2.89
2019-01-04T03:36:23.766Z,2.88
2019-01-04T03:38:52.168Z,2.84
2019-01-04T03:41:20.873Z,2.83
2019-01-04T03:43:49.304Z,2.85
2019-01-04T03:46:17.760Z,2.85
2019-01-04T03:48:46.436Z,2.89
2019-01-04T03:51:14.839Z,2.86
2019-01-04T03:53:43.540Z,2.85
2019-01-04T03:56:12.327Z,2.87
2019-01-04T03:58:40.991Z,2.85
2019-01-04T04:01:09.759Z,2.90
2019-01-04T04:03:38.199Z,2.91
2019-01-04T04:06:06.969Z,2.81
2019-01-04T04:08:35.651Z,2.82
2019-01-04T04:11:04.352Z,2.80
2019-01-04T04:13:32.786Z,2.82
2019-01-04T04:16:01.464Z,2.83
2019-01-04T04:18:29.882Z,2.84
2019-01-04T04:20:58.592Z,2.85
2019-01-04T04:23:27.369Z,2.87
2019-01-04T04:25:57.208Z,2.85
2019-01-04T04:28:25.700Z,2.86
2019-01-04T04:30:54.395Z,2.84
2019-01-04T04:33:22.822Z,2.83
2019-01-04T04:35:51.517Z,2.82
2019-01-04T04:38:20.211Z,2.84
2019-01-04T04:40:48.702Z,2.83
2019-01-04T04:43:17.126Z,2.82
2019-01-04T04:45:45.547Z,2.84
2019-01-04T04:48:14.232Z,2.82
2019-01-04T04:50:42.664Z,2.84
2019-01-04T04:53:11.078Z,2.84
2019-01-04T04:55:39.791Z,2.83
2019-01-04T04:58:08.626Z,2.85
2019-01-04T05:00:37.380Z,2.86
2019-01-04T05:03:05.775Z,2.85
2019-01-04T05:05:34.457Z,2.85
2019-01-04T05:08:03.182Z,2.85
2019-01-04T05:10:31.821Z,2.90
2019-01-04T05:13:00.525Z,2.90
2019-01-04T05:15:29.216Z,2.89
2019-01-04T05:17:57.989Z,2.88
2019-01-04T05:20:26.674Z,2.90
2019-01-04T05:22:55.099Z,2.86
2019-01-04T05:25:23.841Z,2.85
2019-01-04T05:27:52.568Z,2.83
2019-01-04T05:30:21.234Z,2.86
2019-01-04T05:32:49.894Z,2.86
2019-01-04T05:35:19.679Z,2.86
2019-01-04T05:37:48.172Z,2.87
2019-01-04T05:40:16.846Z,2.86
2019-01-04T05:42:45.564Z,2.86
2019-01-04T05:45:13.986Z,2.91
2019-01-04T05:47:42.418Z,2.92
2019-01-04T05:50:11.131Z,2.92
2019-01-04T05:52:39.858Z,2.90
2019-01-04T05:55:08.626Z,2.89
2019-01-04T05:57:37.345Z,2.90
2019-01-04T06:00:09.242Z,2.90
2019-01-04T06:02:37.923Z,2.89
2019-01-04T06:05:06.604Z,2.86
2019-01-04T06:07:35.384Z,2.88
2019-01-04T06:10:05.186Z,2.90
2019-01-04T06:12:33.897Z,2.90
2019-01-04T06:15:02.669Z,2.85
2019-01-04T06:17:31.383Z,2.82
2019-01-04T06:20:00.140Z,2.82
2019-01-04T06:22:28.586Z,2.84
2019-01-04T06:24:57.257Z,2.85
2019-01-04T06:27:26.020Z,2.87
2019-01-04T06:29:54.690Z,2.89
2019-01-04T06:32:23.112Z,2.88
2019-01-04T06:34:51.603Z,2.91
2019-01-04T06:37:20.287Z,2.93
2019-01-04T06:39:49.134Z,2.94
2019-01-04T06:42:17.814Z,2.91
2019-01-04T06:44:46.500Z,2.92
2019-01-04T06:47:16.809Z,2.91
2019-01-04T06:49:45.658Z,2.92
2019-01-04T06:52:14.349Z,2.92
2019-01-04T06:55:17.852Z,2.91
2019-01-04T06:57:46.576Z,2.91
2019-01-04T07:00:15.318Z,2.92
2019-01-04T07:02:43.889Z,2.93
2019-01-04T07:05:12.322Z,2.96
2019-01-04T07:07:41.031Z,2.97
2019-01-04T07:10:10.274Z,2.99
2019-01-04T07:12:38.678Z,2.99
2019-01-04T07:15:07.846Z,3.00
2019-01-04T07:17:36.522Z,3.00
2019-01-04T07:20:06.163Z,3.03
2019-01-04T07:22:34.868Z,3.05
2019-01-04T07:25:03.542Z,3.05
2019-01-04T07:27:31.975Z,3.06
2019-01-04T07:30:00.437Z,3.05
2019-01-04T07:32:28.827Z,3.03
2019-01-04T07:34:57.317Z,3.02
2019-01-04T07:37:26.131Z,3.03
2019-01-04T07:39:54.545Z,2.99
2019-01-04T07:42:22.973Z,3.01
2019-01-04T07:44:51.669Z,2.99
2019-01-04T07:47:20.355Z,2.99
2019-01-04T07:49:49.078Z,3.00
2019-01-04T07:52:18.239Z,3.01
2019-01-04T07:54:47.012Z,3.00
2019-01-04T07:57:15.779Z,3.03
2019-01-04T07:59:44.458Z,3.05
2019-01-04T08:02:37.221Z,3.05
2019-01-04T08:05:09.280Z,3.04
2019-01-04T08:07:37.991Z,3.03
2019-01-04T08:10:07.829Z,3.00
2019-01-04T08:12:39.447Z,2.97
2019-01-04T08:15:10.017Z,2.98
2019-01-04T08:17:38.694Z,2.99
2019-01-04T08:20:09.953Z,2.97
2019-01-04T08:22:38.741Z,3.00
2019-01-04T08:25:08.596Z,3.03
2019-01-04T08:27:37.092Z,3.01
2019-01-04T08:30:09.207Z,3.04
2019-01-04T08:32:37.884Z,3.03
2019-01-04T08:35:07.865Z,3.06
2019-01-04T08:37:36.553Z,3.06
2019-01-04T08:40:07.824Z,3.10
2019-01-04T08:42:37.416Z,3.12
2019-01-04T08:45:07.762Z,3.11
2019-01-04T08:47:36.467Z,3.15
2019-01-04T08:50:07.795Z,3.17
2019-01-04T08:52:36.509Z,3.16
2019-01-04T08:55:07.752Z,3.17
2019-01-04T08:57:36.433Z,3.17
2019-01-04T09:00:07.953Z,3.19
2019-01-04T09:02:36.378Z,3.20
2019-01-04T09:05:05.835Z,3.24
2019-01-04T09:07:34.591Z,3.28
2019-01-04T09:10:03.673Z,3.30
2019-01-04T09:12:32.409Z,3.29
2019-01-04T09:15:01.108Z,3.32
2019-01-04T09:17:29.814Z,3.37
2019-01-04T09:19:58.588Z,3.37
2019-01-04T09:22:27.410Z,3.40
2019-01-04T09:24:55.837Z,3.42
2019-01-04T09:27:24.670Z,2.71
2019-01-04T09:29:53.087Z,3.43
2019-01-04T09:32:21.786Z,3.43
2019-01-04T09:34:50.275Z,3.42
2019-01-04T09:37:19.141Z,3.43
2019-01-04T09:39:47.852Z,3.43
2019-01-04T09:42:16.621Z,3.45
2019-01-04T09:44:45.298Z,3.47
2019-01-04T09:47:13.980Z,3.44
2019-01-04T09:49:42.571Z,3.43
2019-01-04T09:52:11.400Z,3.45
2019-01-04T09:54:40.141Z,3.48
2019-01-04T09:57:08.953Z,3.47
2019-01-04T09:59:37.461Z,3.49
2019-01-04T10:02:06.365Z,3.45
2019-01-04T10:04:35.040Z,3.48
2019-01-04T10:07:03.718Z,3.51
2019-01-04T10:09:32.160Z,2.84
2019-01-04T10:12:02.541Z,3.53
2019-01-04T10:14:31.338Z,3.49
2019-01-04T10:16:59.727Z,3.52
2019-01-04T10:19:28.217Z,3.51
2019-01-04T10:21:56.921Z,3.51
2019-01-04T10:24:25.745Z,3.52
2019-01-04T10:26:54.166Z,3.53
2019-01-04T10:29:22.939Z,3.53
2019-01-04T10:31:51.744Z,3.54
2019-01-04T10:34:20.511Z,3.56
2019-01-04T10:36:49.198Z,3.57
2019-01-04T10:39:17.900Z,3.59
2019-01-04T10:41:46.592Z,3.61
2019-01-04T10:44:15.055Z,3.63
2019-01-04T10:46:43.759Z,3.63
2019-01-04T10:49:12.654Z,3.66
2019-01-04T10:51:42.576Z,3.69
2019-01-04T10:54:11.270Z,3.69
2019-01-04T10:56:40.500Z,3.72
2019-01-04T10:59:09.019Z,3.69
2019-01-04T11:01:37.774Z,3.73
2019-01-04T11:04:06.198Z,3.69
2019-01-04T11:06:34.964Z,3.70
2019-01-04T11:09:04.958Z,3.70
2019-01-04T11:11:33.661Z,3.68
2019-01-04T11:14:02.057Z,3.68
2019-01-04T11:16:30.766Z,3.71
2019-01-04T11:18:59.454Z,3.70
2019-01-04T11:21:28.143Z,3.75
2019-01-04T11:24:05.625Z,3.73
2019-01-04T11:26:40.753Z,3.75
2019-01-04T11:29:18.074Z,3.73
2019-01-04T11:31:58.770Z,3.74
2019-01-04T11:34:33.637Z,3.73
2019-01-04T11:37:23.522Z,3.72
2019-01-04T11:40:17.248Z,3.73
2019-01-04T11:42:51.738Z,3.71
2019-01-04T11:45:23.524Z,3.74
2019-01-04T11:48:11.297Z,3.74
2019-01-04T11:50:42.786Z,3.69
2019-01-04T11:53:14.568Z,3.67
2019-01-04T11:55:42.974Z,3.68
2019-01-04T11:58:11.690Z,3.66
2019-01-04T12:00:40.247Z,3.67
2019-01-04T12:03:08.980Z,3.68
2019-01-04T12:05:37.680Z,3.67
2019-01-04T12:08:06.350Z,3.66
2019-01-04T12:10:35.060Z,3.66
2019-01-04T12:13:03.823Z,3.67
2019-01-04T12:15:32.526Z,3.65
2019-01-04T12:18:01.298Z,3.67
2019-01-04T12:20:29.710Z,3.70
2019-01-04T12:22:58.488Z,3.67
2019-01-04T12:25:26.934Z,3.66
2019-01-04T12:27:55.600Z,3.68
2019-01-04T12:30:24.281Z,3.66
2019-01-04T12:32:52.994Z,3.67
2019-01-04T12:35:21.687Z,3.67
2019-01-04T12:37:50.346Z,3.64
2019-01-04T12:40:19.068Z,3.64
2019-01-04T12:42:47.743Z,3.66
2019-01-04T12:45:16.448Z,3.68
2019-01-04T12:47:44.905Z,3.71
2019-01-04T12:50:13.368Z,3.66
2019-01-04T12:52:42.095Z,3.64
2019-01-04T12:55:10.782Z,3.64
2019-01-04T12:57:39.507Z,3.63
2019-01-04T13:00:11.201Z,3.62
2019-01-04T13:02:39.914Z,3.60
2019-01-04T13:05:08.746Z,3.58
2019-01-04T13:07:37.294Z,3.58
2019-01-04T13:10:06.440Z,3.59
2019-01-04T13:12:35.145Z,3.58
2019-01-04T13:15:04.560Z,3.58
2019-01-04T13:17:33.304Z,3.60
2019-01-04T13:20:02.188Z,3.61
2019-01-04T13:22:30.951Z,3.61
2019-01-04T13:24:59.385Z,3.61
2019-01-04T13:27:28.133Z,3.58
2019-01-04T13:29:56.610Z,3.57
2019-01-04T13:32:25.030Z,3.59
2019-01-04T13:34:53.489Z,3.59
2019-01-04T13:37:22.264Z,3.58
2019-01-04T13:39:50.971Z,3.57
2019-01-04T13:42:19.704Z,3.56
2019-01-04T13:44:48.469Z,3.57
2019-01-04T13:47:17.260Z,3.54
2019-01-04T13:49:45.975Z,3.55
2019-01-04T13:52:14.661Z,3.50
2019-01-04T13:54:43.180Z,3.49
2019-01-04T13:57:11.882Z,3.50
2019-01-04T13:59:40.686Z,3.46
2019-01-04T14:02:09.119Z,3.49
2019-01-04T14:04:37.816Z,3.48
2019-01-04T14:07:06.660Z,3.45
2019-01-04T14:09:35.350Z,3.47
2019-01-04T14:12:04.073Z,3.45
2019-01-04T14:14:32.855Z,3.42
2019-01-04T14:17:01.661Z,3.43
2019-01-04T14:19:30.407Z,3.43
2019-01-04T14:21:59.211Z,3.44
2019-01-04T14:24:28.115Z,3.44
2019-01-04T14:26:56.774Z,3.44
2019-01-04T14:29:26.397Z,3.44
2019-01-04T14:31:54.862Z,3.41
2019-01-04T14:34:23.569Z,3.41
2019-01-04T14:36:52.266Z,3.39
2019-01-04T14:39:21.031Z,3.40
2019-01-04T14:41:49.765Z,3.41
2019-01-04T14:44:18.192Z,3.40
2019-01-04T14:46:46.621Z,3.41
2019-01-04T14:49:16.392Z,3.36
2019-01-04T14:51:45.152Z,3.37
2019-01-04T14:54:13.875Z,3.33
2019-01-04T14:56:42.548Z,3.32
2019-01-04T14:59:11.266Z,3.37
2019-01-04T15:01:39.965Z,3.35
2019-01-04T15:04:08.446Z,3.34
2019-01-04T15:06:37.095Z,3.32
2019-01-04T15:09:07.463Z,3.31
2019-01-04T15:11:36.136Z,3.28
2019-01-04T15:14:04.873Z,3.29
2019-01-04T15:16:33.637Z,3.30
2019-01-04T15:19:02.063Z,3.27
2019-01-04T15:21:30.767Z,3.26
2019-01-04T15:23:59.500Z,3.27
2019-01-04T15:26:28.281Z,3.26
2019-01-04T15:28:56.946Z,3.26
2019-01-04T15:31:25.631Z,3.28
2019-01-04T15:33:54.351Z,3.29
2019-01-04T15:36:23.061Z,3.28
2019-01-04T15:38:51.770Z,3.24
2019-01-04T15:41:20.186Z,3.23
2019-01-04T15:43:48.891Z,3.25
2019-01-04T15:46:17.579Z,3.25
2019-01-04T15:48:46.314Z,3.23
2019-01-04T15:51:15.075Z,3.23
2019-01-04T15:53:43.866Z,3.23
2019-01-04T15:56:12.667Z,3.21
2019-01-04T15:58:41.467Z,3.19
2019-01-04T16:01:10.154Z,3.20
2019-01-04T16:03:38.589Z,3.19
2019-01-04T16:06:07.283Z,3.18
2019-01-04T16:08:36.066Z,3.19
2019-01-04T16:11:04.851Z,3.17
2019-01-04T16:13:33.539Z,3.15
2019-01-04T16:16:02.863Z,3.18
2019-01-04T16:18:31.352Z,3.20
2019-01-04T16:21:00.071Z,3.18
2019-01-04T16:23:28.510Z,3.17
2019-01-04T16:25:57.006Z,3.15
2019-01-04T16:28:25.723Z,3.16
2019-01-04T16:30:54.408Z,3.13
2019-01-04T16:33:23.647Z,3.14
2019-01-04T16:35:52.059Z,3.12
2019-01-04T16:38:20.758Z,3.14
2019-01-04T16:40:49.275Z,3.10
2019-01-04T16:43:17.992Z,3.09
2019-01-04T16:45:46.964Z,3.06
2019-01-04T16:48:15.746Z,3.06
2019-01-04T16:50:47.573Z,3.06
2019-01-04T16:53:16.249Z,3.06
2019-01-04T16:55:46.438Z,3.05
2019-01-04T16:58:15.245Z,3.04
2019-01-04T17:00:44.351Z,3.02
2019-01-04T17:03:12.775Z,3.00
2019-01-04T17:05:42.421Z,3.00
2019-01-04T17:08:10.887Z,3.01
2019-01-04T17:10:39.360Z,2.99
2019-01-04T17:13:08.033Z,3.00
2019-01-04T17:15:36.733Z,2.98
2019-01-04T17:18:05.483Z,2.97
2019-01-04T17:20:34.194Z,2.98
2019-01-04T17:23:02.894Z,2.95
2019-01-04T17:25:32.724Z,2.93
2019-01-04T17:28:01.226Z,2.90
2019-01-04T17:30:29.909Z,2.91
2019-01-04T17:33:01.525Z,2.92
2019-01-04T17:35:30.000Z,2.91
2019-01-04T17:37:58.415Z,2.86
2019-01-04T17:40:27.082Z,2.85
2019-01-04T17:42:55.798Z,2.83
2019-01-04T17:45:24.479Z,2.83
2019-01-04T17:47:53.245Z,2.81
2019-01-04T17:50:21.923Z,2.78
2019-01-04T17:52:50.606Z,2.78
2019-01-04T17:55:19.397Z,2.74
2019-01-04T17:57:48.202Z,2.73
2019-01-04T18:00:16.693Z,2.76
2019-01-04T18:02:45.435Z,2.75
2019-01-04T18:05:14.251Z,2.76
2019-01-04T18:07:42.943Z,2.77
2019-01-04T18:10:11.688Z,2.77
2019-01-04T18:12:40.424Z,2.76
2019-01-04T18:15:09.334Z,2.78
2019-01-04T18:17:38.039Z,2.71
2019-01-04T18:20:11.006Z,2.70
2019-01-04T18:22:38.740Z,2.72
2019-01-04T18:25:07.319Z,2.71
2019-01-04T18:27:36.031Z,2.70
2019-01-04T18:30:07.234Z,2.71
2019-01-04T18:32:35.707Z,2.73
2019-01-04T18:35:04.316Z,2.75
2019-01-04T18:37:33.016Z,2.79
2019-01-04T18:40:01.470Z,2.74
2019-01-04T18:42:29.927Z,2.75
2019-01-04T18:44:58.705Z,2.73
2019-01-04T18:47:27.367Z,2.73
2019-01-04T18:49:56.073Z,2.73
2019-01-04T18:52:24.826Z,2.75
2019-01-04T18:54:53.674Z,2.73
2019-01-04T18:57:22.538Z,2.71
2019-01-04T18:59:53.657Z,2.70
2019-01-04T19:02:22.376Z,2.71
2019-01-04T19:04:50.865Z,2.71
2019-01-04T19:07:19.551Z,2.71
2019-01-04T19:09:48.024Z,2.71
2019-01-04T19:12:16.460Z,2.72
2019-01-04T19:14:45.150Z,2.70
2019-01-04T19:17:13.672Z,2.73
2019-01-04T19:19:42.381Z,2.70
2019-01-04T19:22:11.153Z,2.73
2019-01-04T19:24:39.864Z,2.77
2019-01-04T19:27:08.634Z,2.74
2019-01-04T19:29:37.144Z,2.75
2019-01-04T19:32:05.587Z,2.76
2019-01-04T19:34:34.135Z,2.76
2019-01-04T19:37:04.329Z,2.75
2019-01-04T19:39:33.031Z,2.76
2019-01-04T19:42:01.719Z,2.76
2019-01-04T19:44:30.406Z,2.76
2019-01-04T19:46:59.136Z,2.77
2019-01-04T19:49:27.898Z,2.75
2019-01-04T19:51:57.976Z,2.73
2019-01-04T19:54:26.690Z,2.71
2019-01-04T19:56:55.466Z,2.75
2019-01-04T19:59:24.159Z,2.75
2019-01-04T20:01:52.584Z,2.78
2019-01-04T20:04:21.400Z,2.75
2019-01-04T20:07:20.152Z,2.72
2019-01-04T20:10:26.707Z,2.71
2019-01-04T20:13:12.374Z,2.72
2019-01-04T20:16:15.839Z,2.72
2019-01-04T20:18:48.721Z,2.73
2019-01-04T20:21:27.775Z,2.73
2019-01-04T20:24:01.139Z,2.72
2019-01-04T20:26:47.364Z,2.74
2019-01-04T20:29:20.677Z,2.76
2019-01-04T20:32:00.101Z,2.79
2019-01-04T20:34:45.403Z,2.76
2019-01-04T20:37:30.756Z,2.76
2019-01-04T20:40:06.883Z,2.76
2019-01-04T20:42:53.716Z,2.75
2019-01-04T20:45:24.045Z,2.76
2019-01-04T20:47:54.119Z,2.77
2019-01-04T20:50:30.387Z,2.79
2019-01-04T20:53:04.002Z,2.79
2019-01-04T20:55:34.086Z,2.80
2019-01-04T20:58:16.046Z,2.78
2019-01-04T21:00:52.070Z,2.79
2019-01-04T21:03:39.988Z,2.80
2019-01-04T21:06:18.879Z,2.83
2019-01-04T21:08:51.937Z,2.82
2019-01-04T21:11:27.520Z,2.85
2019-01-04T21:14:14.300Z,2.84
2019-01-04T21:16:59.661Z,2.86
2019-01-04T21:19:39.130Z,2.88
2019-01-04T21:22:18.766Z,2.90
2019-01-04T21:25:00.867Z,2.89
2019-01-04T21:27:32.394Z,2.90
2019-01-04T21:30:08.430Z,2.90
2019-01-04T21:32:41.223Z,2.92
2019-01-04T21:35:11.388Z,2.90
2019-01-04T21:37:44.758Z,2.94
2019-01-04T21:40:23.831Z,2.93
2019-01-04T21:42:59.948Z,2.92
2019-01-04T21:45:45.309Z,2.94
2019-01-04T21:48:15.673Z,2.92
2019-01-04T21:50:46.046Z,2.93
2019-01-04T21:53:19.496Z,2.93
2019-01-04T21:56:01.744Z,2.96
2019-01-04T21:58:49.202Z,2.95
2019-01-04T22:01:28.119Z,2.97
2019-01-04T22:04:13.645Z,2.95
2019-01-04T22:06:44.051Z,2.96
2019-01-04T22:09:15.323Z,2.07
2019-01-04T22:12:01.035Z,2.99
2019-01-04T22:14:40.047Z,3.01
2019-01-04T22:17:10.401Z,3.01
2019-01-04T22:19:43.457Z,3.05
2019-01-04T22:22:13.541Z,3.05
2019-01-04T22:24:59.971Z,3.06
2019-01-04T22:27:39.282Z,3.08
2019-01-04T22:30:15.939Z,3.07
2019-01-04T22:32:58.671Z,3.08
2019-01-04T22:35:40.876Z,3.09
2019-01-04T22:38:23.470Z,3.08
2019-01-04T22:40:56.472Z,3.13
2019-01-04T22:43:32.536Z,3.13
2019-01-04T22:46:15.155Z,3.16
2019-01-04T22:49:03.613Z,3.16
2019-01-04T22:51:50.093Z,3.15
2019-01-04T22:54:29.531Z,3.17
2019-01-04T22:57:15.956Z,3.18
2019-01-04T23:00:01.049Z,3.19
2019-01-04T23:02:47.643Z,3.22
2019-01-04T23:05:17.787Z,3.22
2019-01-04T23:08:03.776Z,3.24
2019-01-04T23:10:42.685Z,3.25
2019-01-04T23:13:28.867Z,3.27
2019-01-04T23:15:59.249Z,3.27
2019-01-04T23:18:29.356Z,3.30
2019-01-04T23:21:14.525Z,3.31
2019-01-04T23:23:44.866Z,3.33
2019-01-04T23:26:19.574Z,3.36
2019-01-04T23:28:49.766Z,3.35
2019-01-04T23:31:36.416Z,3.36
2019-01-04T23:34:12.538Z,3.38
2019-01-04T23:36:55.030Z,3.39
2019-01-04T23:39:25.479Z,3.39
2019-01-04T23:41:55.901Z,3.42
2019-01-04T23:44:37.927Z,3.43
2019-01-04T23:47:24.727Z,3.46
2019-01-04T23:50:04.110Z,3.47
2019-01-04T23:52:46.330Z,3.48
2019-01-04T23:55:19.255Z,3.49
2019-01-04T23:57:52.173Z,3.50
